TAF LFOB
LFOB 081700Z 0818/0918 22010KT 9999 SCT025 PROB30 TEMPO 0903/0907 4000 SHRASN BKN015TCU=
METAR LFOB
LFOB 082200Z AUTO 26007KT CAVOK 02/01 Q1003 NOSIG=
LFOB 082130Z AUTO 26007KT CAVOK 02/01 Q1003 NOSIG=
LFOB 082100Z AUTO 25006KT 9999 FEW036 SCT210 03/01 Q1003 NOSIG=
LFOB 082030Z AUTO 25008KT CAVOK 03/01 Q1002 NOSIG=
LFOB 082000Z AUTO 25007KT CAVOK 03/01 Q1002 NOSIG=
WC LFOB
WS LFOB
WV LFOB